Latest Weather Observations for King Island Airport

IDT60801

Issued at 9:01 pm EDT Monday 8 February 2016 (issued every 30 minutes, with the page automatically refreshed every 10 minutes)

About weather observations | Map of weather stations | Latest weather observations for TAS | Other Formats
Station Details ID: 098017 Name: KING ISLAND AIRPORT Lat: -39.88 Lon: 143.88 Height: 37.0 m
Data from the previous 72 hours. | See also: Recent months at King Island Airport
Date/Time
EDT
Temp
°C
App
Temp
°C
Dew
Point
Rel
Hum
%
Delta-T
°C
Wind Press
QNH
hPa
Press
MSL
hPa
Rain
since 9 am
mm
Dir
 
Spd
km/h
Gust
km/h
Spd
kts
Gust
kts
08/09:00pm 17.1 14.1 11.8 71 2.9 S 19 28 10 15 1023.4 1023.3 0.0
08/08:30pm 17.0 13.6 11.3 69 3.1 SSW 20 33 11 18 1023.3 1023.2 0.0
08/08:00pm 17.5 13.8 11.5 68 3.3 SSW 22 32 12 17 1023.1 1023.0 0.0
08/07:30pm 17.7 13.7 11.7 68 3.3 SSW 24 35 13 19 1022.9 1022.8 0.0
08/07:00pm 18.0 13.7 12.0 68 3.3 SSW 26 39 14 21 1022.8 1022.7 0.0
08/06:30pm 18.2 13.5 12.0 67 3.4 SSW 28 41 15 22 1022.7 1022.6 0.0
08/06:00pm 18.6 14.0 12.4 67 3.4 SSW 28 39 15 21 1022.7 1022.6 0.0
08/05:30pm 18.9 14.3 12.2 65 3.7 SW 28 35 15 19 1022.6 1022.5 0.0
08/05:00pm 19.0 14.6 13.0 68 3.4 SW 28 35 15 19 1022.6 1022.5 0.0
08/04:30pm 19.3 15.0 13.3 68 3.4 SW 28 37 15 20 1022.6 1022.5 0.0
08/04:00pm 19.4 15.2 13.6 69 3.3 SW 28 39 15 21 1022.7 1022.6 0.0
08/03:30pm 20.5 16.1 14.2 67 3.7 SW 30 37 16 20 1022.7 1022.6 0.0
08/03:00pm 19.7 15.9 13.6 68 3.5 SW 26 37 14 20 1022.7 1022.6 0.0
08/02:30pm 20.7 16.7 14.1 66 3.8 SW 28 39 15 21 1022.8 1022.7 0.0
08/02:00pm 20.2 15.9 14.3 69 3.4 SW 30 35 16 19 1022.9 1022.8 0.0
08/01:30pm 19.5 16.6 13.9 70 3.2 SW 22 32 12 17 1023.1 1023.0 0.0
08/01:00pm 20.1 16.7 13.6 66 3.7 SW 24 39 13 21 1023.0 1022.9 0.0
08/12:30pm 20.0 16.0 14.1 69 3.4 SW 28 33 15 18 1023.0 1022.9 0.0
08/12:00pm 20.2 16.6 14.1 68 3.5 SW 26 33 14 18 1023.2 1023.1 0.0
08/11:30am 19.9 16.3 13.1 65 3.9 SSW 24 37 13 20 1023.1 1023.0 0.0
08/11:00am 19.0 14.8 12.3 65 3.7 SSW 26 35 14 19 1023.1 1023.0 0.0
08/10:30am 18.4 14.7 12.8 70 3.1 SW 24 32 13 17 1023.2 1023.1 0.0
08/10:00am 19.7 16.2 13.4 67 3.6 SSW 24 32 13 17 1023.0 1022.9 0.0
08/09:30am 17.8 14.5 12.9 73 2.7 SSW 22 30 12 16 1022.9 1022.8 0.0
08/09:00am 18.6 15.2 12.4 67 3.4 SSW 22 30 12 16 1022.8 1022.7 0.0
08/08:30am 18.0 15.3 12.9 72 2.9 SW 19 32 10 17 1022.5 1022.4 0.0
08/08:00am 17.3 14.9 12.6 74 2.6 SW 17 20 9 11 1022.2 1022.1 0.0
08/07:30am 17.0 15.4 12.7 76 2.4 SW 13 17 7 9 1021.7 1021.6 0.0
08/07:00am 16.9 14.5 12.8 77 2.3 SW 17 22 9 12 1021.6 1021.5 0.0
08/06:30am 17.0 14.2 13.3 79 2.1 SW 20 26 11 14 1021.2 1021.1 0.0
08/06:00am 17.1 14.9 13.2 78 2.2 SSW 17 26 9 14 1020.8 1020.7 0.0
08/05:30am 17.2 15.1 13.7 80 2.0 SW 17 26 9 14 1020.6 1020.5 0.0
08/05:00am 17.3 14.8 14.0 81 1.9 SW 20 26 11 14 1020.2 1020.1 0.0
08/04:30am 17.4 15.2 14.5 83 1.7 SSW 19 26 10 14 1020.2 1020.1 0.0
08/04:00am 17.4 15.3 14.7 84 1.6 SSW 19 28 10 15 1020.2 1020.1 0.0
08/03:30am 17.5 15.4 15.3 87 1.3 SW 20 28 11 15 1020.2 1020.1 0.0
08/03:00am 17.8 15.8 15.4 86 1.4 SW 20 28 11 15 1020.2 1020.1 0.0
08/02:30am 17.9 16.1 15.5 86 1.4 SSW 19 26 10 14 1020.3 1020.2 0.0
08/02:00am 18.0 16.4 16.0 88 1.2 SW 19 26 10 14 1020.4 1020.3 0.0
08/01:30am 18.0 15.8 16.0 88 1.2 SSW 22 28 12 15 1020.2 1020.1 0.0
08/01:00am 18.2 16.6 16.4 89 1.1 SSW 20 26 11 14 1020.2 1020.1 0.0
08/12:30am 18.2 16.7 16.4 89 1.1 SW 19 28 10 15 1020.1 1020.0 0.0
08/12:00am 18.2 16.6 16.5 90 1.0 SSW 20 28 11 15 1020.0 1019.9 0.0
 
Date/Time
EDT
Temp
°C
App
Temp
°C
Dew
Point
Rel
Hum
%
Delta-T
°C
Wind Press
QNH
hPa
Press
MSL
hPa
Rain
since 9 am
mm
Dir
 
Spd
km/h
Gust
km/h
Spd
kts
Gust
kts
07/11:30pm 18.3 16.7 16.5 89 1.1 SSW 20 26 11 14 1020.0 1019.9 0.0
07/11:25pm 18.3 16.3 16.5 89 1.1 SSW 22 30 12 16 1019.9 1019.8 0.0
07/11:00pm 18.3 16.1 16.8 91 0.9 SSW 24 33 13 18 1019.8 1019.7 0.0
07/10:30pm 18.3 16.1 16.8 91 0.9 SSW 24 30 13 16 1019.7 1019.6 0.0
07/10:00pm 18.3 16.1 17.0 92 0.8 SSW 24 33 13 18 1019.6 1019.5 0.0
07/09:30pm 18.5 16.4 17.2 92 0.8 SW 24 32 13 17 1019.2 1019.1 0.0
07/09:00pm 18.8 17.2 17.5 92 0.8 SW 22 30 12 16 1018.8 1018.7 0.0
07/08:30pm 18.8 17.1 17.1 90 1.0 SW 22 28 12 15 1018.5 1018.4 0.0
07/08:00pm 19.3 17.9 16.9 86 1.5 SW 20 28 11 15 1018.3 1018.2 0.0
07/07:30pm 19.9 18.0 16.7 82 1.9 SW 22 28 12 15 1018.0 1017.9 0.0
07/07:00pm 20.6 18.0 16.0 75 2.8 SW 24 28 13 15 1017.6 1017.5 0.0
07/06:58pm 20.8 18.4 16.4 76 2.7 SW 24 28 13 15 1017.6 1017.5 0.0
07/06:30pm 20.7 18.5 15.9 74 2.9 SW 22 30 12 16 1017.4 1017.3 0.0
07/06:00pm 20.3 17.9 16.3 78 2.4 SW 24 32 13 17 1017.6 1017.5 0.0
07/05:30pm 20.8 19.2 16.4 76 2.7 WSW 20 30 11 16 1017.5 1017.4 0.0
07/05:00pm 21.1 18.6 16.1 73 3.0 WSW 24 30 13 16 1017.3 1017.2 0.0
07/04:30pm 21.7 20.0 16.2 71 3.3 WSW 20 28 11 15 1017.3 1017.2 0.0
07/04:00pm 21.7 19.9 16.0 70 3.4 WSW 20 28 11 15 1017.4 1017.3 0.0
07/03:30pm 21.2 19.3 15.7 71 3.3 SW 20 28 11 15 1017.4 1017.3 0.0
07/03:00pm 21.8 19.9 16.7 73 3.1 W 22 30 12 16 1017.4 1017.3 0.0
07/02:30pm 21.6 20.1 16.3 72 3.2 WSW 19 24 10 13 1017.3 1017.2 0.0
07/02:00pm 21.4 20.4 16.6 74 2.9 WSW 17 26 9 14 1017.3 1017.2 0.0
07/01:30pm 21.3 20.1 17.1 77 2.6 W 19 26 10 14 1017.4 1017.3 0.0
07/01:00pm 21.5 20.9 17.5 78 2.5 WSW 17 26 9 14 1017.4 1017.3 0.0
07/12:30pm 21.3 20.5 17.1 77 2.6 WSW 17 20 9 11 1017.3 1017.2 0.0
07/12:00pm 21.7 21.7 17.3 76 2.7 WNW 13 19 7 10 1017.2 1017.1 0.0
07/11:30am 21.2 21.6 17.2 78 2.5 WNW 11 17 6 9 1017.3 1017.2 0.0
07/11:05am 20.7 20.8 17.5 82 2.0 W 13 17 7 9 1017.4 1017.3 0.0
07/11:00am 20.3 19.8 16.9 81 2.1 WSW 15 20 8 11 1017.4 1017.3 0.0
07/10:45am 20.4 20.4 17.2 82 2.0 W 13 17 7 9 1017.5 1017.4 0.0
07/10:30am 21.0 21.3 18.0 83 1.9 WNW 13 17 7 9 1017.4 1017.3 0.0
07/10:01am 21.3 23.7 18.7 85 1.6 N 4 7 2 4 1017.1 1017.0 0.0
07/10:00am 21.3 23.6 18.5 84 1.8 N 4 7 2 4 1017.1 1017.0 0.0
07/09:30am 19.8 21.4 17.9 89 1.2 NNE 6 11 3 6 1016.9 1016.8 0.0
07/09:00am 19.3 20.6 18.5 95 0.5 ENE 9 15 5 8 1016.7 1016.6 0.2
07/08:30am 18.8 20.7 18.6 99 0.1 ENE 6 7 3 4 1016.7 1016.6 0.2
07/08:23am 18.9 20.8 18.9 100 0.0 E 7 9 4 5 1016.7 1016.6 0.2
07/08:00am 17.9 19.0 17.9 100 0.0 ESE 9 9 5 5 1016.3 1016.2 0.2
07/07:59am 18.0 19.1 18.0 100 0.0 ESE 9 9 5 5 1016.3 1016.2 0.2
07/07:55am 17.7 19.1 17.7 100 0.0 ESE 7 9 4 5 1016.3 1016.2 0.2
07/07:30am 16.2 16.6 16.2 100 0.0 E 9 11 5 6 1016.1 1016.0 0.2
07/07:29am 16.1 16.4 16.1 100 0.0 E 9 11 5 6 1016.1 1016.0 0.2
07/07:00am 16.0 15.9 16.0 100 0.0 ESE 11 11 6 6 1016.0 1015.9 0.2
07/06:30am 16.1 16.4 16.1 100 0.0 ESE 9 11 5 6 1015.9 1015.8 0.2
07/06:18am 16.0 15.9 16.0 100 0.0 ESE 11 13 6 7 1015.8 1015.7 0.2
07/06:01am 16.7 17.3 16.7 100 0.0 ESE 9 11 5 6 1015.7 1015.6 0.2
07/06:00am 16.6 17.1 16.6 100 0.0 ESE 9 11 5 6 1015.7 1015.6 0.2
07/05:42am 16.2 16.6 16.2 100 0.0 E 9 11 5 6 1015.3 1015.2 0.2
07/05:30am 16.3 16.7 16.3 100 0.0 E 9 11 5 6 1015.2 1015.1 0.2
07/05:00am 16.8 17.0 16.8 100 0.0 E 11 15 6 8 1015.0 1014.9 0.2
07/04:30am 17.2 16.4 17.2 100 0.0 E 17 19 9 10 1014.7 1014.6 0.2
07/04:00am 17.2 16.4 17.2 100 0.0 E 17 20 9 11 1014.8 1014.7 0.2
07/03:30am 17.1 16.3 17.1 100 0.0 E 17 20 9 11 1014.9 1014.8 0.2
07/03:00am 16.9 15.6 16.9 100 0.0 E 19 24 10 13 1015.1 1015.0 0.2
07/02:32am 16.5 15.5 16.5 100 0.0 E 17 19 9 10 1015.4 1015.3 0.2
07/02:30am 16.5 15.5 16.5 100 0.0 E 17 19 9 10 1015.4 1015.3 0.2
07/02:00am 16.9 16.4 16.9 100 0.0 E 15 17 8 9 1015.7 1015.6 0.2
07/01:30am 17.3 16.6 17.3 100 0.0 E 17 19 9 10 1015.8 1015.7 0.0
07/01:00am 17.0 16.2 17.0 100 0.0 ESE 17 19 9 10 1016.1 1016.0 0.0
07/12:56am 16.9 16.4 16.9 100 0.0 ESE 15 17 8 9 1016.2 1016.1 0.0
07/12:55am 16.9 16.3 16.7 99 0.1 ESE 15 17 8 9 1016.2 1016.1 0.0
07/12:30am 16.7 16.4 16.5 99 0.1 ESE 13 13 7 7 1016.3 1016.2 0.0
07/12:00am 16.4 16.0 16.2 99 0.1 E 13 15 7 8 1016.2 1016.1 0.0
 
Date/Time
EDT
Temp
°C
App
Temp
°C
Dew
Point
Rel
Hum
%
Delta-T
°C
Wind Press
QNH
hPa
Press
MSL
hPa
Rain
since 9 am
mm
Dir
 
Spd
km/h
Gust
km/h
Spd
kts
Gust
kts
06/11:30pm 16.5 15.7 16.2 98 0.2 E 15 15 8 8 1016.2 1016.1 0.0
06/11:00pm 16.8 16.5 16.5 98 0.2 E 13 15 7 8 1016.4 1016.3 0.0
06/10:30pm 17.1 16.6 16.8 98 0.2 E 15 19 8 10 1016.4 1016.3 0.0
06/10:00pm 17.0 16.3 16.4 96 0.4 E 15 15 8 8 1016.5 1016.4 0.0
06/09:30pm 17.6 17.7 16.6 94 0.6 E 11 15 6 8 1016.2 1016.1 0.0
06/09:00pm 18.5 18.4 17.0 91 0.9 ENE 13 17 7 9 1015.9 1015.8 0.0
06/08:30pm 19.4 19.1 17.4 88 1.2 ENE 15 19 8 10 1015.8 1015.7 0.0
06/08:00pm 20.5 19.8 17.3 82 2.0 ENE 17 22 9 12 1015.7 1015.6 0.0
06/07:30pm 21.2 19.5 16.2 73 3.0 ENE 20 28 11 15 1015.3 1015.2 0.0
06/07:00pm 21.5 20.2 16.7 74 2.9 E 19 26 10 14 1015.2 1015.1 0.0
06/06:30pm 21.8 20.4 16.5 72 3.2 ENE 19 26 10 14 1015.2 1015.1 0.0
06/06:00pm 22.2 20.4 16.9 72 3.2 E 22 28 12 15 1015.2 1015.1 0.0
06/05:30pm 22.1 20.6 16.8 72 3.2 ESE 20 28 11 15 1015.2 1015.1 0.0
06/05:00pm 22.5 21.4 17.2 72 3.3 E 19 28 10 15 1015.4 1015.3 0.0
06/04:30pm 22.2 20.3 16.7 71 3.4 E 22 30 12 16 1015.4 1015.3 0.0
06/04:00pm 21.7 19.3 16.4 72 3.2 E 24 35 13 19 1015.6 1015.5 0.0
06/03:30pm 21.8 19.0 16.3 71 3.3 E 26 35 14 19 1015.9 1015.8 0.0
06/03:00pm 22.1 19.0 16.6 71 3.3 E 28 33 15 18 1016.2 1016.1 0.0
06/02:30pm 22.6 19.6 16.9 70 3.5 ENE 28 35 15 19 1016.5 1016.4 0.0
06/02:00pm 21.1 17.2 16.5 75 2.8 E 32 39 17 21 1016.8 1016.7 0.0
06/01:30pm 22.4 18.9 16.4 69 3.6 E 30 39 16 21 1017.1 1017.0 0.0
06/01:00pm 22.5 18.5 16.1 67 3.9 ENE 32 39 17 21 1017.2 1017.1 0.0
06/12:30pm 22.2 18.2 16.2 69 3.6 ENE 32 39 17 21 1017.4 1017.3 0.0
06/12:00pm 21.4 17.3 15.9 71 3.3 E 32 41 17 22 1017.7 1017.6 0.0
06/11:30am 22.1 17.4 15.9 68 3.7 ENE 35 50 19 27 1017.9 1017.8 0.0
06/11:00am 20.9 16.4 15.4 71 3.3 ENE 33 46 18 25 1018.0 1017.9 0.0
06/10:44am 20.6 15.9 14.9 70 3.4 ENE 33 52 18 28 1018.3 1018.2 0.0
06/10:30am 21.9 16.8 15.7 68 3.7 ENE 37 50 20 27 1018.2 1018.1 0.0
06/10:00am 21.2 16.9 15.3 69 3.5 ENE 32 46 17 25 1018.4 1018.3 0.0
06/09:30am 20.6 15.3 15.2 71 3.2 E 37 50 20 27 1018.4 1018.3 0.0
06/09:00am 19.8 15.3 14.8 73 2.9 ENE 32 48 17 26 1018.7 1018.6 0.0
06/08:30am 19.3 16.1 15.2 77 2.4 ENE 26 35 14 19 1018.8 1018.7 0.0
06/08:00am 18.5 13.8 14.4 77 2.4 ENE 32 46 17 25 1018.5 1018.4 0.0
06/07:30am 18.2 14.7 14.5 79 2.1 ENE 26 35 14 19 1018.4 1018.3 0.0
06/07:00am 17.7 13.9 14.8 83 1.7 ENE 28 37 15 20 1018.1 1018.0 0.0
06/06:30am 17.8 14.8 14.7 82 1.8 ENE 24 33 13 18 1018.0 1017.9 0.0
06/06:00am 17.5 13.7 14.6 83 1.7 ENE 28 39 15 21 1017.7 1017.6 0.0
06/05:30am 17.6 13.9 14.9 84 1.6 ENE 28 41 15 22 1017.9 1017.8 0.0
06/05:00am 17.6 14.0 15.2 86 1.4 ENE 28 39 15 21 1017.9 1017.8 0.0
06/04:30am 17.4 14.3 15.6 89 1.1 E 26 35 14 19 1018.1 1018.0 0.0
06/04:00am 17.0 14.3 15.5 91 0.9 E 24 33 13 18 1018.5 1018.4 0.0
06/03:30am 16.4 14.9 15.3 93 0.6 E 17 20 9 11 1018.9 1018.8 0.0
06/03:00am 16.3 15.2 15.2 93 0.6 ESE 15 19 8 10 1019.5 1019.4 0.0
06/02:30am 16.6 15.5 15.3 92 0.8 ESE 15 19 8 10 1019.7 1019.6 0.0
06/02:00am 16.4 15.2 15.1 92 0.8 ESE 15 19 8 10 1019.9 1019.8 0.0
06/01:30am 16.4 15.1 14.8 90 0.9 ESE 15 19 8 10 1020.3 1020.2 0.0
06/01:00am 16.6 15.0 15.0 90 0.9 ESE 17 20 9 11 1020.5 1020.4 0.0
06/12:30am 16.8 15.0 15.5 92 0.8 ESE 19 22 10 12 1020.6 1020.5 0.0
06/12:00am 16.9 15.5 15.6 92 0.8 ESE 17 19 9 10 1020.9 1020.8 0.0
 
Date/Time
EDT
Temp
°C
App
Temp
°C
Dew
Point
Rel
Hum
%
Delta-T
°C
Wind Press
QNH
hPa
Press
MSL
hPa
Rain
since 9 am
mm
Dir
 
Spd
km/h
Gust
km/h
Spd
kts
Gust
kts
05/11:30pm 16.9 15.8 15.4 91 0.9 ESE 15 20 8 11 1021.1 1021.0 0.0
05/11:00pm 17.2 16.2 15.7 91 0.9 ESE 15 20 8 11 1021.2 1021.1 0.0
05/10:30pm 17.0 15.6 15.5 91 0.9 E 17 20 9 11 1021.2 1021.1 0.0
05/10:00pm 17.2 15.8 15.5 90 1.0 ESE 17 22 9 12 1021.2 1021.1 0.0
05/09:30pm 17.5 16.2 15.7 89 1.1 E 17 22 9 12 1021.2 1021.1 0.0

Other Formats:

Comma delimited format used in spreadsheet applications
http://www.bom.gov.au/fwo/IDT60801/IDT60801.94850.axf

JavaScript Object Notation format (JSON) in row-major order
http://www.bom.gov.au/fwo/IDT60801/IDT60801.94850.json